sensor_id;sensor_type;location;lat;lon;timestamp;pressure;altitude;pressure_sealevel;temperature;humidity
36062;BME280;22123;52.412;20.970;2023-12-22T00:01:36;96928.53;;;2.86;100.00
36062;BME280;22123;52.412;20.970;2023-12-22T00:04:01;96920.38;;;2.74;100.00
36062;BME280;22123;52.412;20.970;2023-12-22T00:06:27;96949.34;;;2.96;100.00
36062;BME280;22123;52.412;20.970;2023-12-22T00:08:53;96917.34;;;2.64;100.00
36062;BME280;22123;52.412;20.970;2023-12-22T00:11:19;96916.72;;;2.69;100.00
36062;BME280;22123;52.412;20.970;2023-12-22T00:13:45;96883.91;;;2.50;100.00
36062;BME280;22123;52.412;20.970;2023-12-22T00:16:11;96905.13;;;2.56;100.00
36062;BME280;22123;52.412;20.970;2023-12-22T00:18:37;96949.78;;;2.86;100.00
36062;BME280;22123;52.412;20.970;2023-12-22T00:21:03;96871.25;;;2.32;100.00
36062;BME280;22123;52.412;20.970;2023-12-22T00:23:29;96904.50;;;2.54;100.00
36062;BME280;22123;52.412;20.970;2023-12-22T00:25:54;96931.03;;;2.68;100.00
36062;BME280;22123;52.412;20.970;2023-12-22T00:28:20;96915.50;;;2.65;100.00
36062;BME280;22123;52.412;20.970;2023-12-22T00:30:46;96947.38;;;2.71;100.00
36062;BME280;22123;52.412;20.970;2023-12-22T00:33:12;96910.44;;;2.50;100.00
36062;BME280;22123;52.412;20.970;2023-12-22T00:35:38;96904.72;;;2.53;100.00
36062;BME280;22123;52.412;20.970;2023-12-22T00:38:04;96922.25;;;2.60;100.00
36062;BME280;22123;52.412;20.970;2023-12-22T00:40:30;96890.25;;;2.42;100.00
36062;BME280;22123;52.412;20.970;2023-12-22T00:42:56;96890.63;;;2.46;100.00
36062;BME280;22123;52.412;20.970;2023-12-22T00:45:21;96954.50;;;2.84;100.00
36062;BME280;22123;52.412;20.970;2023-12-22T00:47:47;96921.88;;;2.64;100.00
36062;BME280;22123;52.412;20.970;2023-12-22T00:50:13;96910.44;;;2.50;100.00
36062;BME280;22123;52.412;20.970;2023-12-22T00:52:39;96935.31;;;2.69;100.00
36062;BME280;22123;52.412;20.970;2023-12-22T00:55:05;96923.09;;;2.54;100.00
36062;BME280;22123;52.412;20.970;2023-12-22T00:57:31;96966.56;;;2.80;100.00
36062;BME280;22123;52.412;20.970;2023-12-22T00:59:57;96925.97;;;2.53;100.00
36062;BME280;22123;52.412;20.970;2023-12-22T01:02:23;96925.97;;;2.53;100.00
36062;BME280;22123;52.412;20.970;2023-12-22T01:04:48;96954.13;;;2.60;100.00
36062;BME280;22123;52.412;20.970;2023-12-22T01:07:14;96932.91;;;2.54;100.00
36062;BME280;22123;52.412;20.970;2023-12-22T01:09:40;96938.19;;;2.60;100.00
36062;BME280;22123;52.412;20.970;2023-12-22T01:12:07;96982.28;;;2.82;100.00
36062;BME280;22123;52.412;20.970;2023-12-22T01:14:33;96949.22;;;2.64;100.00
36062;BME280;22123;52.412;20.970;2023-12-22T01:16:59;96954.13;;;2.60;100.00
36062;BME280;22123;52.412;20.970;2023-12-22T01:19:25;96975.38;;;2.74;100.00
36062;BME280;22123;52.412;20.970;2023-12-22T01:21:51;96979.25;;;2.71;100.00
36062;BME280;22123;52.412;20.970;2023-12-22T01:24:17;96912.72;;;2.33;100.00
36062;BME280;22123;52.412;20.970;2023-12-22T01:26:44;96967.19;;;2.62;100.00
36062;BME280;22123;52.412;20.970;2023-12-22T01:29:10;96968.00;;;2.69;100.00
36062;BME280;22123;52.412;20.970;2023-12-22T01:31:36;96940.88;;;2.54;100.00
36062;BME280;22123;52.412;20.970;2023-12-22T01:34:02;96922.91;;;2.36;100.00
36062;BME280;22123;52.412;20.970;2023-12-22T01:36:27;96967.59;;;2.59;100.00
36062;BME280;22123;52.412;20.970;2023-12-22T01:38:53;96973.13;;;2.64;100.00
36062;BME280;22123;52.412;20.970;2023-12-22T01:41:19;96912.91;;;2.31;100.00
36062;BME280;22123;52.412;20.970;2023-12-22T01:43:45;96931.50;;;2.38;100.00
36062;BME280;22123;52.412;20.970;2023-12-22T01:46:12;96967.41;;;2.60;100.00
36062;BME280;22123;52.412;20.970;2023-12-22T01:48:38;96938.00;;;2.49;100.00
36062;BME280;22123;52.412;20.970;2023-12-22T01:51:05;96924.13;;;2.47;100.00
36062;BME280;22123;52.412;20.970;2023-12-22T01:53:32;96945.56;;;2.52;100.00
36062;BME280;22123;52.412;20.970;2023-12-22T01:56:00;96951.72;;;2.52;100.00
36062;BME280;22123;52.412;20.970;2023-12-22T01:58:29;96933.31;;;2.44;100.00
36062;BME280;22123;52.412;20.970;2023-12-22T02:00:56;96915.38;;;2.33;100.00
36062;BME280;22123;52.412;20.970;2023-12-22T02:03:23;96905.97;;;2.30;100.00
36062;BME280;22123;52.412;20.970;2023-12-22T02:05:48;96969.25;;;2.67;100.00
36062;BME280;22123;52.412;20.970;2023-12-22T02:08:17;96929.25;;;2.41;100.00
36062;BME280;22123;52.412;20.970;2023-12-22T02:10:43;96907.44;;;2.26;100.00
36062;BME280;22123;52.412;20.970;2023-12-22T02:13:09;96951.25;;;2.62;100.00
36062;BME280;22123;52.412;20.970;2023-12-22T02:15:35;96909.22;;;2.46;100.00
36062;BME280;22123;52.412;20.970;2023-12-22T02:18:25;96934.94;;;2.58;100.00
36062;BME280;22123;52.412;20.970;2023-12-22T02:20:58;96905.94;;;2.50;100.00
36062;BME280;22123;52.412;20.970;2023-12-22T02:23:24;96910.63;;;2.61;100.00
36062;BME280;22123;52.412;20.970;2023-12-22T02:26:03;96923.88;;;2.68;100.00
36062;BME280;22123;52.412;20.970;2023-12-22T02:28:39;96963.25;;;2.91;100.00
36062;BME280;22123;52.412;20.970;2023-12-22T02:31:37;96952.66;;;2.78;100.00
36062;BME280;22123;52.412;20.970;2023-12-22T02:34:19;96926.75;;;2.53;100.00
36062;BME280;22123;52.412;20.970;2023-12-22T02:36:55;96972.47;;;2.89;100.00
36062;BME280;22123;52.412;20.970;2023-12-22T02:39:28;96957.97;;;2.85;100.00
36062;BME280;22123;52.412;20.970;2023-12-22T02:42:04;96881.47;;;2.35;100.00
36062;BME280;22123;52.412;20.970;2023-12-22T02:44:32;96954.91;;;2.74;100.00
36062;BME280;22123;52.412;20.970;2023-12-22T02:47:08;96955.50;;;2.76;100.00
36062;BME280;22123;52.412;20.970;2023-12-22T02:49:44;96912.44;;;2.68;100.00
36062;BME280;22123;52.412;20.970;2023-12-22T02:52:20;96904.66;;;2.73;100.00
36062;BME280;22123;52.412;20.970;2023-12-22T02:54:46;96888.34;;;2.63;100.00
36062;BME280;22123;52.412;20.970;2023-12-22T02:57:22;96936.47;;;2.93;100.00
36062;BME280;22123;52.412;20.970;2023-12-22T02:59:48;96880.34;;;2.69;100.00
36062;BME280;22123;52.412;20.970;2023-12-22T03:02:14;96896.47;;;2.81;100.00
36062;BME280;22123;52.412;20.970;2023-12-22T03:04:50;96894.41;;;2.83;100.00
36062;BME280;22123;52.412;20.970;2023-12-22T03:07:16;96901.59;;;2.76;100.00
36062;BME280;22123;52.412;20.970;2023-12-22T03:09:52;96950.28;;;3.15;100.00
36062;BME280;22123;52.412;20.970;2023-12-22T03:12:27;96899.91;;;2.88;100.00
36062;BME280;22123;52.412;20.970;2023-12-22T03:15:04;96944.59;;;3.11;100.00
36062;BME280;22123;52.412;20.970;2023-12-22T03:17:40;96927.88;;;2.91;100.00
36062;BME280;22123;52.412;20.970;2023-12-22T03:20:16;96905.41;;;2.87;100.00
36062;BME280;22123;52.412;20.970;2023-12-22T03:22:49;96956.25;;;3.04;100.00
36062;BME280;22123;52.412;20.970;2023-12-22T03:25:25;96948.50;;;3.02;100.00
36062;BME280;22123;52.412;20.970;2023-12-22T03:27:58;96918.53;;;2.82;100.00
36062;BME280;22123;52.412;20.970;2023-12-22T03:30:24;96903.66;;;2.67;100.00
36062;BME280;22123;52.412;20.970;2023-12-22T03:33:00;96895.25;;;2.70;100.00
36062;BME280;22123;52.412;20.970;2023-12-22T03:35:26;96891.22;;;2.61;100.00
36062;BME280;22123;52.412;20.970;2023-12-22T03:37:52;96933.47;;;2.69;100.00
36062;BME280;22123;52.412;20.970;2023-12-22T03:40:18;96936.13;;;2.69;100.00
36062;BME280;22123;52.412;20.970;2023-12-22T03:42:44;96926.16;;;2.58;100.00
36062;BME280;22123;52.412;20.970;2023-12-22T03:45:19;96935.53;;;2.60;100.00
36062;BME280;22123;52.412;20.970;2023-12-22T03:47:45;96974.09;;;2.76;100.00
36062;BME280;22123;52.412;20.970;2023-12-22T03:50:11;96930.03;;;2.49;100.00
36062;BME280;22123;52.412;20.970;2023-12-22T03:52:37;96967.59;;;2.72;100.00
36062;BME280;22123;52.412;20.970;2023-12-22T03:55:03;96958.63;;;2.67;100.00
36062;BME280;22123;52.412;20.970;2023-12-22T03:57:29;96890.28;;;2.22;100.00
36062;BME280;22123;52.412;20.970;2023-12-22T03:59:59;96920.06;;;2.37;100.00
36062;BME280;22123;52.412;20.970;2023-12-22T04:02:25;96914.16;;;2.29;100.00
36062;BME280;22123;52.412;20.970;2023-12-22T04:04:53;96897.63;;;2.26;100.00
36062;BME280;22123;52.412;20.970;2023-12-22T04:07:19;96909.88;;;2.28;100.00
36062;BME280;22123;52.412;20.970;2023-12-22T04:09:55;96941.09;;;2.39;100.00
36062;BME280;22123;52.412;20.970;2023-12-22T04:12:21;96947.44;;;2.38;100.00
36062;BME280;22123;52.412;20.970;2023-12-22T04:14:47;96888.88;;;1.99;100.00
36062;BME280;22123;52.412;20.970;2023-12-22T04:17:19;96950.50;;;2.35;100.00
36062;BME280;22123;52.412;20.970;2023-12-22T04:19:45;96909.25;;;2.05;100.00
36062;BME280;22123;52.412;20.970;2023-12-22T04:22:11;96917.84;;;2.01;100.00
36062;BME280;22123;52.412;20.970;2023-12-22T04:24:37;96965.00;;;2.25;100.00
36062;BME280;22123;52.412;20.970;2023-12-22T04:27:03;96937.22;;;2.21;100.00
36062;BME280;22123;52.412;20.970;2023-12-22T04:29:39;96935.81;;;2.12;100.00
36062;BME280;22123;52.412;20.970;2023-12-22T04:32:15;96927.03;;;2.12;100.00
36062;BME280;22123;52.412;20.970;2023-12-22T04:34:41;96943.16;;;2.23;100.00
36062;BME280;22123;52.412;20.970;2023-12-22T04:37:06;96898.03;;;1.97;100.00
36062;BME280;22123;52.412;20.970;2023-12-22T04:39:32;96949.47;;;2.29;100.00
36062;BME280;22123;52.412;20.970;2023-12-22T04:41:58;96941.72;;;2.21;100.00
36062;BME280;22123;52.412;20.970;2023-12-22T04:44:24;96912.13;;;2.04;100.00
36062;BME280;22123;52.412;20.970;2023-12-22T04:46:50;96943.16;;;2.23;100.00
36062;BME280;22123;52.412;20.970;2023-12-22T04:49:16;96954.38;;;2.25;100.00
36062;BME280;22123;52.412;20.970;2023-12-22T04:51:44;96912.13;;;1.90;100.00
36062;BME280;22123;52.412;20.970;2023-12-22T04:54:10;96937.44;;;2.13;100.00
36062;BME280;22123;52.412;20.970;2023-12-22T04:56:36;96942.13;;;2.18;100.00
36062;BME280;22123;52.412;20.970;2023-12-22T04:59:02;96900.09;;;1.95;100.00
36062;BME280;22123;52.412;20.970;2023-12-22T05:01:27;96946.00;;;2.08;100.00
36062;BME280;22123;52.412;20.970;2023-12-22T05:03:53;96972.56;;;2.22;100.00
36062;BME280;22123;52.412;20.970;2023-12-22T05:06:19;96923.97;;;1.88;100.00
36062;BME280;22123;52.412;20.970;2023-12-22T05:08:45;96967.44;;;2.14;100.00
36062;BME280;22123;52.412;20.970;2023-12-22T05:11:11;96957.63;;;2.01;100.00
36062;BME280;22123;52.412;20.970;2023-12-22T05:13:37;96939.47;;;1.91;100.00
36062;BME280;22123;52.412;20.970;2023-12-22T05:16:03;96928.25;;;1.89;100.00
36062;BME280;22123;52.412;20.970;2023-12-22T05:18:29;96992.94;;;2.21;100.00
36062;BME280;22123;52.412;20.970;2023-12-22T05:21:05;96948.47;;;2.03;100.00
36062;BME280;22123;52.412;20.970;2023-12-22T05:23:31;96979.91;;;2.13;100.00
36062;BME280;22123;52.412;20.970;2023-12-22T05:25:57;96940.31;;;1.91;100.00
36062;BME280;22123;52.412;20.970;2023-12-22T05:28:23;97011.16;;;2.38;100.00
36062;BME280;22123;52.412;20.970;2023-12-22T05:30:49;96968.47;;;2.13;100.00
36062;BME280;22123;52.412;20.970;2023-12-22T05:33:15;97006.44;;;2.40;100.00
36062;BME280;22123;52.412;20.970;2023-12-22T05:35:41;96964.56;;;2.08;100.00
36062;BME280;22123;52.412;20.970;2023-12-22T05:38:07;96965.63;;;2.07;100.00
36062;BME280;22123;52.412;20.970;2023-12-22T05:40:33;96979.28;;;2.11;100.00
36062;BME280;22123;52.412;20.970;2023-12-22T05:42:58;96927.22;;;1.83;100.00
36062;BME280;22123;52.412;20.970;2023-12-22T05:45:24;96998.06;;;2.23;100.00
36062;BME280;22123;52.412;20.970;2023-12-22T05:47:50;96977.25;;;2.06;100.00
36062;BME280;22123;52.412;20.970;2023-12-22T05:50:16;97006.44;;;2.20;100.00
36062;BME280;22123;52.412;20.970;2023-12-22T05:52:43;96994.19;;;2.12;100.00
36062;BME280;22123;52.412;20.970;2023-12-22T05:55:09;96991.31;;;2.14;100.00
36062;BME280;22123;52.412;20.970;2023-12-22T05:57:34;96981.94;;;2.04;100.00
36062;BME280;22123;52.412;20.970;2023-12-22T06:00:00;97009.09;;;2.20;100.00
36062;BME280;22123;52.412;20.970;2023-12-22T06:02:26;96989.28;;;2.09;100.00
36062;BME280;22123;52.412;20.970;2023-12-22T06:04:52;96981.94;;;1.98;100.00
36062;BME280;22123;52.412;20.970;2023-12-22T06:07:18;96982.53;;;2.00;100.00
36062;BME280;22123;52.412;20.970;2023-12-22T06:09:44;96968.84;;;1.83;100.00
36062;BME280;22123;52.412;20.970;2023-12-22T06:12:10;96989.91;;;2.04;100.00
36062;BME280;22123;52.412;20.970;2023-12-22T06:14:36;96979.69;;;1.95;100.00
36062;BME280;22123;52.412;20.970;2023-12-22T06:17:02;97043.81;;;2.25;100.00
36062;BME280;22123;52.412;20.970;2023-12-22T06:19:27;96982.13;;;1.89;100.00
36062;BME280;22123;52.412;20.970;2023-12-22T06:21:54;96993.16;;;1.93;100.00
36062;BME280;22123;52.412;20.970;2023-12-22T06:24:19;97002.13;;;1.99;100.00
36062;BME280;22123;52.412;20.970;2023-12-22T06:26:45;97011.31;;;2.09;100.00
36062;BME280;22123;52.412;20.970;2023-12-22T06:29:11;97023.97;;;2.14;100.00
36062;BME280;22123;52.412;20.970;2023-12-22T06:31:37;97024.81;;;2.15;100.00
36062;BME280;22123;52.412;20.970;2023-12-22T06:34:03;97031.75;;;2.16;100.00
36062;BME280;22123;52.412;20.970;2023-12-22T06:36:29;96976.59;;;1.91;100.00
36062;BME280;22123;52.412;20.970;2023-12-22T06:38:55;97038.06;;;2.21;100.00
36062;BME280;22123;52.412;20.970;2023-12-22T06:41:25;97001.72;;;1.95;100.00
36062;BME280;22123;52.412;20.970;2023-12-22T06:43:52;97034.22;;;2.17;100.00
36062;BME280;22123;52.412;20.970;2023-12-22T06:46:19;97046.06;;;2.28;100.00
36062;BME280;22123;52.412;20.970;2023-12-22T06:48:45;97058.09;;;2.37;100.00
36062;BME280;22123;52.412;20.970;2023-12-22T06:53:47;97069.75;;;2.36;100.00
36062;BME280;22123;52.412;20.970;2023-12-22T06:56:20;97059.53;;;2.13;100.00
36062;BME280;22123;52.412;20.970;2023-12-22T06:58:47;97062.19;;;2.33;100.00
36062;BME280;22123;52.412;20.970;2023-12-22T07:01:21;97051.16;;;2.16;100.00
36062;BME280;22123;52.412;20.970;2023-12-22T07:03:48;97045.63;;;2.11;100.00
36062;BME280;22123;52.412;20.970;2023-12-22T07:06:15;97022.34;;;1.93;100.00
36062;BME280;22123;52.412;20.970;2023-12-22T07:08:41;97078.09;;;2.26;100.00
36062;BME280;22123;52.412;20.970;2023-12-22T07:11:07;97076.47;;;2.19;100.00
36062;BME280;22123;52.412;20.970;2023-12-22T07:13:33;97088.72;;;2.26;100.00
36062;BME280;22123;52.412;20.970;2023-12-22T07:15:58;97107.94;;;2.35;100.00
36062;BME280;22123;52.412;20.970;2023-12-22T07:18:24;97119.78;;;2.39;100.00
36062;BME280;22123;52.412;20.970;2023-12-22T07:20:50;97123.69;;;2.43;100.00
36062;BME280;22123;52.412;20.970;2023-12-22T07:23:16;97121.63;;;2.46;100.00
36062;BME280;22123;52.412;20.970;2023-12-22T07:25:42;97068.09;;;2.15;100.00
36062;BME280;22123;52.412;20.970;2023-12-22T07:28:08;97089.94;;;2.17;100.00
36062;BME280;22123;52.412;20.970;2023-12-22T07:30:34;97074.41;;;2.14;100.00
36062;BME280;22123;52.412;20.970;2023-12-22T07:33:00;97072.16;;;2.11;100.00
36062;BME280;22123;52.412;20.970;2023-12-22T07:35:26;97092.81;;;2.22;100.00
36062;BME280;22123;52.412;20.970;2023-12-22T07:37:52;97123.25;;;2.33;100.00
36062;BME280;22123;52.412;20.970;2023-12-22T07:40:18;97101.97;;;2.20;100.00
36062;BME280;22123;52.412;20.970;2023-12-22T07:42:43;97121.38;;;2.27;100.00
36062;BME280;22123;52.412;20.970;2023-12-22T07:45:09;97125.06;;;2.33;100.00
36062;BME280;22123;52.412;20.970;2023-12-22T07:47:35;97119.56;;;2.28;100.00
36062;BME280;22123;52.412;20.970;2023-12-22T07:50:01;97117.09;;;2.19;100.00
36062;BME280;22123;52.412;20.970;2023-12-22T07:52:27;97143.88;;;2.31;100.00
36062;BME280;22123;52.412;20.970;2023-12-22T07:54:53;97103.81;;;2.06;100.00
36062;BME280;22123;52.412;20.970;2023-12-22T07:57:20;97127.28;;;2.16;100.00
36062;BME280;22123;52.412;20.970;2023-12-22T07:59:46;97133.03;;;2.33;100.00
36062;BME280;22123;52.412;20.970;2023-12-22T08:02:12;97100.31;;;2.05;100.00
36062;BME280;22123;52.412;20.970;2023-12-22T08:04:38;97095.19;;;1.97;100.00
36062;BME280;22123;52.412;20.970;2023-12-22T08:07:04;97138.94;;;2.21;100.00
36062;BME280;22123;52.412;20.970;2023-12-22T08:09:30;97146.31;;;2.26;100.00
36062;BME280;22123;52.412;20.970;2023-12-22T08:11:56;97123.34;;;1.98;100.00
36062;BME280;22123;52.412;20.970;2023-12-22T08:14:21;97163.84;;;2.27;100.00
36062;BME280;22123;52.412;20.970;2023-12-22T08:16:47;97148.91;;;2.06;100.00
36062;BME280;22123;52.412;20.970;2023-12-22T08:19:13;97144.41;;;2.06;100.00
36062;BME280;22123;52.412;20.970;2023-12-22T08:21:39;97152.94;;;1.95;100.00
36062;BME280;22123;52.412;20.970;2023-12-22T08:24:05;97170.13;;;2.06;100.00
36062;BME280;22123;52.412;20.970;2023-12-22T08:26:31;97133.72;;;1.80;100.00
36062;BME280;22123;52.412;20.970;2023-12-22T08:28:57;97144.72;;;1.83;100.00
36062;BME280;22123;52.412;20.970;2023-12-22T08:31:23;97150.22;;;1.82;100.00
36062;BME280;22123;52.412;20.970;2023-12-22T08:33:49;97176.81;;;1.95;100.00
36062;BME280;22123;52.412;20.970;2023-12-22T08:36:15;97176.59;;;1.97;100.00
36062;BME280;22123;52.412;20.970;2023-12-22T08:38:41;97151.28;;;1.87;100.00
36062;BME280;22123;52.412;20.970;2023-12-22T08:41:07;97209.34;;;2.11;100.00
36062;BME280;22123;52.412;20.970;2023-12-22T08:43:33;97157.78;;;1.85;100.00
36062;BME280;22123;52.412;20.970;2023-12-22T08:45:59;97170.91;;;2.00;100.00
36062;BME280;22123;52.412;20.970;2023-12-22T08:48:25;97176.44;;;2.05;100.00
36062;BME280;22123;52.412;20.970;2023-12-22T08:50:50;97195.09;;;2.25;100.00
36062;BME280;22123;52.412;20.970;2023-12-22T08:53:16;97179.59;;;2.35;100.00
36062;BME280;22123;52.412;20.970;2023-12-22T08:55:42;97190.59;;;2.25;100.00
36062;BME280;22123;52.412;20.970;2023-12-22T08:58:08;97154.13;;;1.86;100.00
36062;BME280;22123;52.412;20.970;2023-12-22T09:00:34;97186.91;;;2.13;100.00
36062;BME280;22123;52.412;20.970;2023-12-22T09:03:00;97138.66;;;1.96;100.00
36062;BME280;22123;52.412;20.970;2023-12-22T09:05:26;97158.94;;;2.17;100.00
36062;BME280;22123;52.412;20.970;2023-12-22T09:07:52;97149.34;;;2.23;100.00
36062;BME280;22123;52.412;20.970;2023-12-22T09:10:17;97130.53;;;2.11;100.00
36062;BME280;22123;52.412;20.970;2023-12-22T09:12:43;97124.44;;;2.17;100.00
36062;BME280;22123;52.412;20.970;2023-12-22T09:15:09;97187.81;;;2.47;100.00
36062;BME280;22123;52.412;20.970;2023-12-22T09:17:35;97121.19;;;2.22;100.00
36062;BME280;22123;52.412;20.970;2023-12-22T09:20:01;97090.50;;;1.99;100.00
36062;BME280;22123;52.412;20.970;2023-12-22T09:22:27;97169.59;;;2.31;100.00
36062;BME280;22123;52.412;20.970;2023-12-22T09:24:53;97158.16;;;2.23;100.00
36062;BME280;22123;52.412;20.970;2023-12-22T09:27:18;97176.56;;;2.38;100.00
36062;BME280;22123;52.412;20.970;2023-12-22T09:29:44;97088.72;;;2.13;100.00
36062;BME280;22123;52.412;20.970;2023-12-22T09:32:10;97115.91;;;2.42;100.00
36062;BME280;22123;52.412;20.970;2023-12-22T09:34:36;97119.19;;;2.51;100.00
36062;BME280;22123;52.412;20.970;2023-12-22T09:37:02;97120.41;;;2.55;100.00
36062;BME280;22123;52.412;20.970;2023-12-22T09:39:28;97130.22;;;2.68;100.00
36062;BME280;22123;52.412;20.970;2023-12-22T09:41:54;97095.47;;;2.42;100.00
36062;BME280;22123;52.412;20.970;2023-12-22T09:44:20;97140.25;;;2.72;100.00
36062;BME280;22123;52.412;20.970;2023-12-22T09:46:49;97134.94;;;2.72;100.00
36062;BME280;22123;52.412;20.970;2023-12-22T09:49:18;97145.75;;;2.51;100.00
36062;BME280;22123;52.412;20.970;2023-12-22T09:51:45;97176.78;;;2.43;100.00
36062;BME280;22123;52.412;20.970;2023-12-22T09:54:11;97148.34;;;2.17;100.00
36062;BME280;22123;52.412;20.970;2023-12-22T09:56:39;97171.31;;;1.97;100.00
36062;BME280;22123;52.412;20.970;2023-12-22T09:59:06;97131.84;;;1.38;100.00
36062;BME280;22123;52.412;20.970;2023-12-22T10:01:32;97149.91;;;1.21;100.00
36062;BME280;22123;52.412;20.970;2023-12-22T10:03:59;97108.44;;;0.79;100.00
36062;BME280;22123;52.412;20.970;2023-12-22T10:06:25;97126.78;;;0.80;100.00
36062;BME280;22123;52.412;20.970;2023-12-22T10:08:52;97135.06;;;0.71;100.00
36062;BME280;22123;52.412;20.970;2023-12-22T10:11:19;97108.00;;;0.54;100.00
36062;BME280;22123;52.412;20.970;2023-12-22T10:13:48;97101.63;;;0.41;100.00
36062;BME280;22123;52.412;20.970;2023-12-22T10:16:14;97056.81;;;-0.04;100.00
36062;BME280;22123;52.412;20.970;2023-12-22T10:18:40;97108.88;;;0.32;100.00
36062;BME280;22123;52.412;20.970;2023-12-22T10:21:06;97102.31;;;0.28;100.00
36062;BME280;22123;52.412;20.970;2023-12-22T10:23:32;97132.81;;;0.46;100.00
36062;BME280;22123;52.412;20.970;2023-12-22T10:25:58;97132.00;;;0.45;100.00
36062;BME280;22123;52.412;20.970;2023-12-22T10:28:24;97150.75;;;0.50;100.00
36062;BME280;22123;52.412;20.970;2023-12-22T10:30:53;97108.75;;;0.19;100.00
36062;BME280;22123;52.412;20.970;2023-12-22T10:33:19;97172.31;;;0.47;100.00
36062;BME280;22123;52.412;20.970;2023-12-22T10:35:44;97159.53;;;0.51;100.00
36062;BME280;22123;52.412;20.970;2023-12-22T10:38:10;97171.53;;;0.54;100.00
36062;BME280;22123;52.412;20.970;2023-12-22T10:40:39;97155.81;;;0.45;100.00
36062;BME280;22123;52.412;20.970;2023-12-22T10:43:05;97165.81;;;0.50;100.00
36062;BME280;22123;52.412;20.970;2023-12-22T10:45:31;97107.28;;;0.16;100.00
36062;BME280;22123;52.412;20.970;2023-12-22T10:47:57;97113.75;;;0.14;100.00
36062;BME280;22123;52.412;20.970;2023-12-22T10:50:23;97118.06;;;0.15;100.00
36062;BME280;22123;52.412;20.970;2023-12-22T10:52:50;97117.91;;;0.23;100.00
36062;BME280;22123;52.412;20.970;2023-12-22T10:55:16;97151.28;;;0.39;100.00
36062;BME280;22123;52.412;20.970;2023-12-22T10:57:46;97143.06;;;0.34;100.00
36062;BME280;22123;52.412;20.970;2023-12-22T11:00:14;97134.56;;;0.39;100.00
36062;BME280;22123;52.412;20.970;2023-12-22T11:02:42;97102.69;;;0.25;100.00
36062;BME280;22123;52.412;20.970;2023-12-22T11:05:10;97145.72;;;0.56;100.00
36062;BME280;22123;52.412;20.970;2023-12-22T11:07:37;97147.00;;;0.60;100.00
36062;BME280;22123;52.412;20.970;2023-12-22T11:10:04;97139.47;;;0.63;100.00
36062;BME280;22123;52.412;20.970;2023-12-22T11:12:38;97123.75;;;0.55;100.00
36062;BME280;22123;52.412;20.970;2023-12-22T11:15:05;97132.41;;;0.71;100.00
36062;BME280;22123;52.412;20.970;2023-12-22T11:17:32;97124.34;;;0.79;100.00
36062;BME280;22123;52.412;20.970;2023-12-22T11:19:59;97138.13;;;0.96;100.00
36062;BME280;22123;52.412;20.970;2023-12-22T11:22:25;97117.78;;;1.03;100.00
36062;BME280;22123;52.412;20.970;2023-12-22T11:24:52;97060.13;;;0.77;100.00
36062;BME280;22123;52.412;20.970;2023-12-22T11:27:19;97109.72;;;1.18;100.00
36062;BME280;22123;52.412;20.970;2023-12-22T11:29:47;97073.97;;;1.00;100.00
36062;BME280;22123;52.412;20.970;2023-12-22T11:32:15;97103.50;;;1.32;100.00
36062;BME280;22123;52.412;20.970;2023-12-22T11:34:42;97075.13;;;1.26;100.00
36062;BME280;22123;52.412;20.970;2023-12-22T11:37:09;97105.00;;;1.48;100.00
36062;BME280;22123;52.412;20.970;2023-12-22T11:39:37;97067.00;;;1.28;100.00
36062;BME280;22123;52.412;20.970;2023-12-22T11:42:04;97052.03;;;1.20;100.00
36062;BME280;22123;52.412;20.970;2023-12-22T11:44:31;97085.00;;;1.46;100.00
36062;BME280;22123;52.412;20.970;2023-12-22T11:49:35;97094.56;;;1.40;100.00
36062;BME280;22123;52.412;20.970;2023-12-22T11:52:14;97087.19;;;1.35;100.00
36062;BME280;22123;52.412;20.970;2023-12-22T11:57:33;97089.44;;;1.38;100.00
36062;BME280;22123;52.412;20.970;2023-12-22T12:02:30;97045.75;;;1.21;100.00
36062;BME280;22123;52.412;20.970;2023-12-22T12:04:57;97036.16;;;1.20;100.00
36062;BME280;22123;52.412;20.970;2023-12-22T12:07:40;97063.78;;;1.46;100.00
36062;BME280;22123;52.412;20.970;2023-12-22T12:10:11;97079.69;;;1.46;100.00
36062;BME280;22123;52.412;20.970;2023-12-22T12:12:37;97066.84;;;1.43;100.00
36062;BME280;22123;52.412;20.970;2023-12-22T12:15:08;97051.97;;;1.48;100.00
36062;BME280;22123;52.412;20.970;2023-12-22T12:17:37;96950.25;;;0.94;100.00
36062;BME280;22123;52.412;20.970;2023-12-22T12:20:06;97004.53;;;1.18;100.00
36062;BME280;22123;52.412;20.970;2023-12-22T12:22:32;97018.66;;;1.26;100.00
36062;BME280;22123;52.412;20.970;2023-12-22T12:24:58;97038.28;;;1.38;100.00
36062;BME280;22123;52.412;20.970;2023-12-22T12:27:24;97019.84;;;1.23;100.00
36062;BME280;22123;52.412;20.970;2023-12-22T12:29:50;97008.00;;;1.12;100.00
36062;BME280;22123;52.412;20.970;2023-12-22T12:32:16;97045.97;;;1.26;100.00
36062;BME280;22123;52.412;20.970;2023-12-22T12:34:43;97047.78;;;1.26;100.00
36062;BME280;22123;52.412;20.970;2023-12-22T12:37:09;97013.44;;;0.97;100.00
36062;BME280;22123;52.412;20.970;2023-12-22T12:39:37;97044.69;;;1.15;100.00
36062;BME280;22123;52.412;20.970;2023-12-22T12:42:07;96988.63;;;0.70;100.00
36062;BME280;22123;52.412;20.970;2023-12-22T12:44:33;97018.94;;;0.96;100.00
36062;BME280;22123;52.412;20.970;2023-12-22T12:47:11;97012.47;;;0.77;100.00
36062;BME280;22123;52.412;20.970;2023-12-22T12:49:37;97033.72;;;0.83;100.00
36062;BME280;22123;52.412;20.970;2023-12-22T12:52:03;97025.75;;;0.83;100.00
36062;BME280;22123;52.412;20.970;2023-12-22T12:54:31;97034.16;;;0.87;100.00
36062;BME280;22123;52.412;20.970;2023-12-22T12:56:57;97012.19;;;0.65;100.00
36062;BME280;22123;52.412;20.970;2023-12-22T12:59:23;97018.53;;;0.64;100.00
36062;BME280;22123;52.412;20.970;2023-12-22T13:01:49;97006.28;;;0.63;100.00